createdAt,value
2023-12-28T00:00:28.826Z,0.062
2023-12-28T00:03:27.324Z,0.061
2023-12-28T00:05:27.179Z,0.063
2023-12-28T00:07:27.247Z,0.064
2023-12-28T00:09:27.782Z,0.064
2023-12-28T00:11:27.233Z,0.067
2023-12-28T00:13:27.304Z,0.066
2023-12-28T00:15:27.276Z,0.064
2023-12-28T00:17:27.075Z,0.064
2023-12-28T00:19:27.915Z,0.066
2023-12-28T00:21:27.376Z,0.066
2023-12-28T00:23:27.187Z,0.065
2023-12-28T00:25:27.359Z,0.064
2023-12-28T00:27:27.389Z,0.064
2023-12-28T00:29:29.907Z,0.064
2023-12-28T00:31:27.255Z,0.063
2023-12-28T00:33:29.563Z,0.061
2023-12-28T00:35:27.239Z,0.061
2023-12-28T00:37:27.358Z,0.062
2023-12-28T00:39:27.225Z,0.060
2023-12-28T00:41:27.249Z,0.059
2023-12-28T00:43:28.198Z,0.058
2023-12-28T00:45:28.139Z,0.057
2023-12-28T00:47:27.258Z,0.055
2023-12-28T00:49:28.130Z,0.055
2023-12-28T00:51:27.122Z,0.054
2023-12-28T00:53:27.096Z,0.055
2023-12-28T00:55:27.183Z,0.056
2023-12-28T00:57:31.470Z,0.057
2023-12-28T00:59:27.963Z,0.059
2023-12-28T01:01:27.566Z,0.060
2023-12-28T01:03:27.307Z,0.060
2023-12-28T01:05:29.942Z,0.060
2023-12-28T01:07:28.697Z,0.057
2023-12-28T01:09:27.530Z,0.057
2023-12-28T01:11:27.491Z,0.055
2023-12-28T01:13:27.298Z,0.053
2023-12-28T01:15:30.044Z,0.054
2023-12-28T01:17:33.089Z,0.053
2023-12-28T01:19:27.384Z,0.053
2023-12-28T01:21:27.677Z,0.054
2023-12-28T01:23:27.208Z,0.055
2023-12-28T01:25:27.376Z,0.056
2023-12-28T01:27:27.444Z,0.056
2023-12-28T01:29:28.999Z,0.057
2023-12-28T01:31:27.685Z,0.058
2023-12-28T01:33:34.721Z,0.059
2023-12-28T01:35:27.202Z,0.060
2023-12-28T01:37:29.963Z,0.059
2023-12-28T01:39:27.229Z,0.059
2023-12-28T01:41:27.200Z,0.059
2023-12-28T01:43:27.344Z,0.059
2023-12-28T01:45:27.314Z,0.059
2023-12-28T01:47:27.305Z,0.060
2023-12-28T01:49:27.321Z,0.061
2023-12-28T01:51:27.328Z,0.061
2023-12-28T01:53:27.572Z,0.062
2023-12-28T01:55:27.356Z,0.060
2023-12-28T01:57:27.294Z,0.060
2023-12-28T01:59:27.211Z,0.059
2023-12-28T02:01:27.360Z,0.062
2023-12-28T02:03:28.078Z,0.062
2023-12-28T02:05:27.961Z,0.062
2023-12-28T02:07:27.364Z,0.063
2023-12-28T02:09:27.262Z,0.062
2023-12-28T02:11:27.227Z,0.060
2023-12-28T02:13:27.375Z,0.062
2023-12-28T02:15:29.949Z,0.063
2023-12-28T02:17:27.390Z,0.066
2023-12-28T02:19:27.266Z,0.065
2023-12-28T02:21:32.205Z,0.063
2023-12-28T02:23:28.411Z,0.063
2023-12-28T02:25:27.212Z,0.061
2023-12-28T02:29:39.592Z,0.058
2023-12-28T02:31:39.541Z,0.058
2023-12-28T02:33:39.712Z,0.057
2023-12-28T02:35:39.474Z,0.055
2023-12-28T02:37:39.498Z,0.055
2023-12-28T02:39:39.549Z,0.054
2023-12-28T02:41:45.038Z,0.055
2023-12-28T02:43:39.366Z,0.056
2023-12-28T02:45:45.373Z,0.054
2023-12-28T02:47:39.536Z,0.055
2023-12-28T02:49:42.356Z,0.056
2023-12-28T02:51:41.919Z,0.057
2023-12-28T02:53:39.499Z,0.055
2023-12-28T02:55:39.900Z,0.057
2023-12-28T02:57:39.438Z,0.057
2023-12-28T02:59:39.390Z,0.058
2023-12-28T03:01:39.385Z,0.055
2023-12-28T03:03:40.412Z,0.055
2023-12-28T03:05:39.673Z,0.054
2023-12-28T03:07:39.319Z,0.054
2023-12-28T03:09:41.447Z,0.054
2023-12-28T03:11:39.324Z,0.055
2023-12-28T03:13:42.475Z,0.054
2023-12-28T03:15:39.319Z,0.056
2023-12-28T03:17:40.348Z,0.054
2023-12-28T03:19:42.340Z,0.052
2023-12-28T03:21:39.556Z,0.053
2023-12-28T03:23:39.778Z,0.054
2023-12-28T03:25:39.689Z,0.054
2023-12-28T03:27:41.965Z,0.055
2023-12-28T03:29:39.366Z,0.056
2023-12-28T03:31:40.741Z,0.057
2023-12-28T03:33:39.459Z,0.057
2023-12-28T03:35:39.387Z,0.059
2023-12-28T03:37:39.708Z,0.059
2023-12-28T03:39:39.426Z,0.062
2023-12-28T03:41:42.742Z,0.061
2023-12-28T03:43:41.822Z,0.060
2023-12-28T03:45:42.527Z,0.061
2023-12-28T03:47:43.689Z,0.060
2023-12-28T03:49:39.514Z,0.060
2023-12-28T03:51:39.444Z,0.058
2023-12-28T03:53:42.501Z,0.060
2023-12-28T03:55:42.390Z,0.059
2023-12-28T03:57:39.550Z,0.060
2023-12-28T03:59:39.544Z,0.059
2023-12-28T04:01:42.478Z,0.059
2023-12-28T04:03:39.529Z,0.058
2023-12-28T04:05:39.588Z,0.058
2023-12-28T04:07:40.328Z,0.059
2023-12-28T04:09:41.265Z,0.061
2023-12-28T04:11:39.431Z,0.061
2023-12-28T04:13:39.419Z,0.063
2023-12-28T04:15:39.488Z,0.065
2023-12-28T04:17:39.464Z,0.066
2023-12-28T04:19:40.752Z,0.065
2023-12-28T04:21:42.233Z,0.065
2023-12-28T04:23:39.473Z,0.063
2023-12-28T04:25:39.502Z,0.066
2023-12-28T04:27:39.370Z,0.065
2023-12-28T04:29:39.428Z,0.064
2023-12-28T04:31:40.109Z,0.065
2023-12-28T04:33:39.549Z,0.064
2023-12-28T04:35:39.384Z,0.064
2023-12-28T04:38:39.461Z,0.061
2023-12-28T04:40:39.416Z,0.064
2023-12-28T04:42:39.558Z,0.064
2023-12-28T04:44:39.572Z,0.064
2023-12-28T04:46:39.312Z,0.065
2023-12-28T04:48:39.605Z,0.065
2023-12-28T04:50:40.050Z,0.067
2023-12-28T04:52:39.512Z,0.066
2023-12-28T04:54:39.521Z,0.064
2023-12-28T04:56:39.404Z,0.063
2023-12-28T04:58:39.497Z,0.063
2023-12-28T05:00:39.591Z,0.063
2023-12-28T05:02:39.466Z,0.062
2023-12-28T05:04:39.572Z,0.063
2023-12-28T05:06:39.552Z,0.065
2023-12-28T05:08:53.812Z,0.065
2023-12-28T05:10:39.590Z,0.064
2023-12-28T05:12:44.198Z,0.063
2023-12-28T05:14:39.348Z,0.061
2023-12-28T05:16:39.359Z,0.060
2023-12-28T05:18:43.398Z,0.059
2023-12-28T05:20:39.374Z,0.060
2023-12-28T05:22:39.457Z,0.061
2023-12-28T05:24:42.574Z,0.059
2023-12-28T05:25:53.756Z,0.059
2023-12-28T05:28:39.503Z,0.061
2023-12-28T05:30:39.470Z,0.061
2023-12-28T05:32:40.990Z,0.061
2023-12-28T05:34:39.511Z,0.061
2023-12-28T05:36:39.484Z,0.060
2023-12-28T05:38:39.368Z,0.062
2023-12-28T05:40:39.531Z,0.063
2023-12-28T05:42:39.457Z,0.063
2023-12-28T05:44:39.472Z,0.063
2023-12-28T05:46:39.445Z,0.062
2023-12-28T05:48:39.627Z,0.062
2023-12-28T05:50:39.448Z,0.062
2023-12-28T05:52:42.990Z,0.061
2023-12-28T05:54:39.701Z,0.061
2023-12-28T05:56:39.554Z,0.062
2023-12-28T05:58:39.498Z,0.062
2023-12-28T06:00:39.589Z,0.062
2023-12-28T06:02:39.691Z,0.063
2023-12-28T06:04:43.159Z,0.063
2023-12-28T06:06:39.533Z,0.061
2023-12-28T06:08:39.439Z,0.058
2023-12-28T06:10:39.455Z,0.058
2023-12-28T06:12:39.582Z,0.057
2023-12-28T06:14:39.388Z,0.058
2023-12-28T06:16:39.357Z,0.058
2023-12-28T06:18:40.311Z,0.059
2023-12-28T06:20:39.521Z,0.060
2023-12-28T06:22:39.419Z,0.059
2023-12-28T06:24:41.817Z,0.059
2023-12-28T06:26:39.383Z,0.058
2023-12-28T06:28:39.511Z,0.057
2023-12-28T06:30:39.587Z,0.056
2023-12-28T06:32:39.882Z,0.055
2023-12-28T06:34:39.480Z,0.055
2023-12-28T06:36:39.783Z,0.055
2023-12-28T06:38:39.379Z,0.056
2023-12-28T06:40:39.566Z,0.055
2023-12-28T06:42:39.702Z,0.054
2023-12-28T06:44:39.391Z,0.053
2023-12-28T06:46:39.548Z,0.054
2023-12-28T06:48:39.612Z,0.053
2023-12-28T06:50:39.649Z,0.056
2023-12-28T06:52:39.411Z,0.058
2023-12-28T06:54:39.485Z,0.058
2023-12-28T06:56:39.421Z,0.057
2023-12-28T06:58:41.022Z,0.057
2023-12-28T07:00:39.576Z,0.059
2023-12-28T07:02:41.049Z,0.057
2023-12-28T07:04:39.778Z,0.057
2023-12-28T07:06:39.791Z,0.058
2023-12-28T07:08:39.390Z,0.060
2023-12-28T07:10:39.439Z,0.063
2023-12-28T07:12:42.799Z,0.063
2023-12-28T07:14:39.429Z,0.061
2023-12-28T07:16:39.485Z,0.061
2023-12-28T07:18:39.654Z,0.061
2023-12-28T07:20:44.336Z,0.060
2023-12-28T07:22:39.633Z,0.061
2023-12-28T07:24:39.492Z,0.060
2023-12-28T07:26:40.258Z,0.061
2023-12-28T07:28:39.522Z,0.061
2023-12-28T07:30:39.451Z,0.062
2023-12-28T07:32:39.449Z,0.061
2023-12-28T07:34:39.688Z,0.062
2023-12-28T07:36:41.664Z,0.062
2023-12-28T07:38:39.429Z,0.061
2023-12-28T07:40:39.389Z,0.059
2023-12-28T07:42:39.398Z,0.060
2023-12-28T07:44:44.069Z,0.060
2023-12-28T07:46:39.422Z,0.061
2023-12-28T07:48:39.628Z,0.062
2023-12-28T07:50:39.393Z,0.060
2023-12-28T07:52:39.397Z,0.060
2023-12-28T07:54:42.379Z,0.059
2023-12-28T07:56:39.397Z,0.060
2023-12-28T07:58:39.370Z,0.060
2023-12-28T08:00:39.468Z,0.060
2023-12-28T08:02:39.435Z,0.062
2023-12-28T08:04:39.578Z,0.060
2023-12-28T08:06:39.509Z,0.062
2023-12-28T08:08:39.496Z,0.062
2023-12-28T08:10:39.550Z,0.061
2023-12-28T08:12:39.453Z,0.062
2023-12-28T08:14:39.577Z,0.063
2023-12-28T08:16:39.454Z,0.064
2023-12-28T08:18:39.519Z,0.066
2023-12-28T08:20:39.464Z,0.065
2023-12-28T08:22:39.412Z,0.064
2023-12-28T08:24:40.226Z,0.067
2023-12-28T08:26:39.460Z,0.065
2023-12-28T08:28:41.746Z,0.064
2023-12-28T08:30:39.558Z,0.064
2023-12-28T08:32:42.446Z,0.066
2023-12-28T08:34:53.979Z,0.066
2023-12-28T08:36:53.977Z,0.067
2023-12-28T08:39:01.721Z,0.067
2023-12-28T08:40:54.174Z,0.066
2023-12-28T08:42:53.977Z,0.068
2023-12-28T08:44:53.886Z,0.068
2023-12-28T08:46:54.375Z,0.068
2023-12-28T08:48:54.065Z,0.067
2023-12-28T08:50:53.920Z,0.066
2023-12-28T08:52:53.929Z,0.065
2023-12-28T08:54:53.935Z,0.064
2023-12-28T08:56:55.302Z,0.063
2023-12-28T08:58:53.925Z,0.062
2023-12-28T09:00:54.048Z,0.062
2023-12-28T09:02:54.035Z,0.060
2023-12-28T09:04:53.926Z,0.061
2023-12-28T09:06:54.437Z,0.058
2023-12-28T09:08:53.912Z,0.058
2023-12-28T09:10:53.876Z,0.057
2023-12-28T09:12:58.889Z,0.056
2023-12-28T09:14:54.054Z,0.056
2023-12-28T09:16:54.588Z,0.056
2023-12-28T09:18:53.995Z,0.054
2023-12-28T09:20:54.201Z,0.054
2023-12-28T09:22:53.896Z,0.055
2023-12-28T09:24:54.198Z,0.053
2023-12-28T09:26:53.956Z,0.053
2023-12-28T09:28:54.281Z,0.054
2023-12-28T09:30:53.975Z,0.053
2023-12-28T09:32:53.914Z,0.054
2023-12-28T09:34:54.183Z,0.051
2023-12-28T09:37:54.025Z,0.050
2023-12-28T09:39:54.014Z,0.052
2023-12-28T09:41:53.948Z,0.052
2023-12-28T09:43:57.711Z,0.051
2023-12-28T09:44:58.568Z,0.050
2023-12-28T09:47:53.981Z,0.050
2023-12-28T09:49:54.031Z,0.050
2023-12-28T09:51:53.928Z,0.049
2023-12-28T09:53:53.977Z,0.051
2023-12-28T09:55:53.929Z,0.053
2023-12-28T09:57:54.371Z,0.053
2023-12-28T09:59:54.641Z,0.053
2023-12-28T10:01:53.954Z,0.051
2023-12-28T10:03:54.057Z,0.053
2023-12-28T10:05:56.944Z,0.053
2023-12-28T10:07:54.139Z,0.051
2023-12-28T10:09:55.047Z,0.052
2023-12-28T10:11:54.003Z,0.052
2023-12-28T10:13:54.043Z,0.053
2023-12-28T10:15:54.011Z,0.053
2023-12-28T10:17:54.041Z,0.052
2023-12-28T10:19:54.090Z,0.051
2023-12-28T10:21:54.001Z,0.049
2023-12-28T10:23:54.318Z,0.047
2023-12-28T10:25:54.002Z,0.047
2023-12-28T10:27:56.294Z,0.050
2023-12-28T10:29:08.322Z,0.051
2023-12-28T10:31:54.003Z,0.050
2023-12-28T10:33:56.661Z,0.051
2023-12-28T10:35:56.799Z,0.051
2023-12-28T10:37:54.081Z,0.053
2023-12-28T10:39:54.012Z,0.053
2023-12-28T10:41:53.975Z,0.053
2023-12-28T10:43:56.092Z,0.054
2023-12-28T10:45:54.037Z,0.051
2023-12-28T10:47:54.036Z,0.053
2023-12-28T10:49:54.454Z,0.053
2023-12-28T10:51:54.134Z,0.053
2023-12-28T10:53:53.978Z,0.053
2023-12-28T10:55:54.060Z,0.053
2023-12-28T10:57:58.973Z,0.053
2023-12-28T10:59:53.987Z,0.052
2023-12-28T11:01:53.961Z,0.055
2023-12-28T11:03:53.978Z,0.054
2023-12-28T11:05:56.912Z,0.054
2023-12-28T11:07:54.045Z,0.056
2023-12-28T11:09:54.078Z,0.055
2023-12-28T11:11:56.667Z,0.056
2023-12-28T11:13:54.006Z,0.055
2023-12-28T11:15:55.695Z,0.055
2023-12-28T11:17:57.086Z,0.055
2023-12-28T11:19:56.905Z,0.057
2023-12-28T11:21:54.151Z,0.060
2023-12-28T11:23:54.756Z,0.062
2023-12-28T11:25:54.057Z,0.063
2023-12-28T11:27:54.162Z,0.062
2023-12-28T11:29:54.002Z,0.061
2023-12-28T11:31:55.430Z,0.063
2023-12-28T11:33:58.721Z,0.061
2023-12-28T11:35:54.584Z,0.062
2023-12-28T11:37:54.044Z,0.061
2023-12-28T11:39:54.055Z,0.061
2023-12-28T11:41:54.130Z,0.061
2023-12-28T11:43:54.099Z,0.062
2023-12-28T11:45:54.068Z,0.063
2023-12-28T11:47:54.007Z,0.060
2023-12-28T11:49:54.162Z,0.060
2023-12-28T11:51:54.220Z,0.060
2023-12-28T11:53:54.270Z,0.060
2023-12-28T11:55:54.976Z,0.059
2023-12-28T11:57:57.137Z,0.058
2023-12-28T11:59:54.073Z,0.061
2023-12-28T12:01:54.230Z,0.060
2023-12-28T12:03:54.191Z,0.059
2023-12-28T12:06:08.575Z,0.059
2023-12-28T12:08:08.515Z,0.060
2023-12-28T12:10:08.701Z,0.061
2023-12-28T12:12:08.526Z,0.059
2023-12-28T12:14:08.680Z,0.057
2023-12-28T12:16:08.884Z,0.059
2023-12-28T12:18:08.679Z,0.061
2023-12-28T12:20:05.203Z,0.060
2023-12-28T12:21:54.175Z,0.060
2023-12-28T12:24:08.668Z,0.058
2023-12-28T12:25:54.107Z,0.055
2023-12-28T12:28:08.515Z,0.056
2023-12-28T12:29:59.939Z,0.057
2023-12-28T12:31:54.083Z,0.058
2023-12-28T12:33:54.172Z,0.058
2023-12-28T12:35:54.068Z,0.055
2023-12-28T12:37:54.148Z,0.055
2023-12-28T12:39:54.133Z,0.054
2023-12-28T12:41:54.047Z,0.054
2023-12-28T12:43:54.105Z,0.051
2023-12-28T12:45:54.038Z,0.051
2023-12-28T12:47:54.184Z,0.051
2023-12-28T12:49:54.171Z,0.051
2023-12-28T12:51:54.130Z,0.052
2023-12-28T12:53:58.975Z,0.050
2023-12-28T12:55:54.018Z,0.054
2023-12-28T12:57:55.227Z,0.053
2023-12-28T12:59:56.716Z,0.052
2023-12-28T13:01:54.249Z,0.052
2023-12-28T13:03:54.164Z,0.052
2023-12-28T13:05:54.167Z,0.052
2023-12-28T13:07:54.050Z,0.052
2023-12-28T13:09:56.819Z,0.051
2023-12-28T13:11:54.225Z,0.053
2023-12-28T13:13:54.056Z,0.054
2023-12-28T13:15:54.274Z,0.051
2023-12-28T13:17:54.076Z,0.048
2023-12-28T13:19:54.308Z,0.048
2023-12-28T13:21:54.191Z,0.047
2023-12-28T13:23:54.122Z,0.050
2023-12-28T13:25:54.335Z,0.053
2023-12-28T13:27:54.152Z,0.052
2023-12-28T13:29:54.073Z,0.052
2023-12-28T13:32:54.137Z,0.052
2023-12-28T13:33:57.223Z,0.051
2023-12-28T13:36:54.166Z,0.054
2023-12-28T13:38:08.493Z,0.055
2023-12-28T13:40:54.118Z,0.056
2023-12-28T13:42:54.160Z,0.058
2023-12-28T13:44:54.108Z,0.056
2023-12-28T13:46:54.108Z,0.055
2023-12-28T13:47:59.120Z,0.056
2023-12-28T13:50:54.099Z,0.056
2023-12-28T13:52:54.181Z,0.057
2023-12-28T13:54:55.115Z,0.053
2023-12-28T13:56:54.186Z,0.055
2023-12-28T13:58:54.183Z,0.057
2023-12-28T14:00:54.352Z,0.058
2023-12-28T14:02:54.121Z,0.058
2023-12-28T14:04:06.336Z,0.059
2023-12-28T14:06:54.276Z,0.058
2023-12-28T14:08:54.150Z,0.060
2023-12-28T14:10:56.261Z,0.059
2023-12-28T14:12:54.232Z,0.059
2023-12-28T14:14:54.376Z,0.060
2023-12-28T14:16:54.112Z,0.061
2023-12-28T14:18:54.306Z,0.060
2023-12-28T14:20:54.155Z,0.061
2023-12-28T14:22:59.213Z,0.064
2023-12-28T14:24:54.189Z,0.063
2023-12-28T14:26:54.106Z,0.062
2023-12-28T14:28:54.191Z,0.063
2023-12-28T14:30:54.228Z,0.061
2023-12-28T14:32:54.284Z,0.061
2023-12-28T14:34:54.353Z,0.061
2023-12-28T14:36:54.226Z,0.059
2023-12-28T14:38:54.203Z,0.058
2023-12-28T14:40:54.188Z,0.060
2023-12-28T14:42:54.192Z,0.059
2023-12-28T14:44:54.258Z,0.061
2023-12-28T14:46:55.287Z,0.061
2023-12-28T14:48:54.363Z,0.060
2023-12-28T14:50:54.141Z,0.063
2023-12-28T14:52:54.884Z,0.063
2023-12-28T14:54:54.165Z,0.063
2023-12-28T14:58:54.197Z,0.063
2023-12-28T15:05:18.325Z,0.060
2023-12-28T15:07:17.080Z,0.058
2023-12-28T15:09:19.670Z,0.057
2023-12-28T15:10:20.968Z,0.058
2023-12-28T15:13:17.063Z,0.059
2023-12-28T15:15:17.207Z,0.059
2023-12-28T15:17:17.241Z,0.061
2023-12-28T15:19:17.390Z,0.062
2023-12-28T15:21:17.170Z,0.061
2023-12-28T15:23:17.268Z,0.058
2023-12-28T15:25:17.154Z,0.058
2023-12-28T15:27:17.142Z,0.058
2023-12-28T15:29:17.190Z,0.056
2023-12-28T15:31:17.663Z,0.057
2023-12-28T15:33:17.348Z,0.057
2023-12-28T15:35:17.196Z,0.057
2023-12-28T15:37:17.108Z,0.057
2023-12-28T15:39:17.076Z,0.057
2023-12-28T15:41:17.158Z,0.056
2023-12-28T15:43:22.096Z,0.056
2023-12-28T15:45:17.133Z,0.057
2023-12-28T15:47:20.280Z,0.058
2023-12-28T15:49:17.161Z,0.059
2023-12-28T15:51:17.140Z,0.058
2023-12-28T15:53:17.576Z,0.057
2023-12-28T15:55:17.137Z,0.057
2023-12-28T15:57:17.108Z,0.055
2023-12-28T15:59:17.080Z,0.056
2023-12-28T16:01:17.170Z,0.057
2023-12-28T16:03:17.145Z,0.057
2023-12-28T16:05:17.165Z,0.057
2023-12-28T16:07:17.721Z,0.059
2023-12-28T16:09:17.217Z,0.064
2023-12-28T16:11:19.653Z,0.062
2023-12-28T16:13:17.098Z,0.060
2023-12-28T16:15:17.196Z,0.060
2023-12-28T16:17:17.142Z,0.060
2023-12-28T16:19:17.233Z,0.061
2023-12-28T16:21:17.160Z,0.059
2023-12-28T16:23:21.326Z,0.059
2023-12-28T16:25:17.136Z,0.058
2023-12-28T16:27:17.096Z,0.058
2023-12-28T16:29:17.077Z,0.058
2023-12-28T16:31:17.231Z,0.058
2023-12-28T16:33:17.190Z,0.060
2023-12-28T16:35:18.014Z,0.060
2023-12-28T16:37:17.191Z,0.063
2023-12-28T16:39:17.118Z,0.062
2023-12-28T16:41:18.500Z,0.061
2023-12-28T16:43:21.614Z,0.062
2023-12-28T16:45:17.205Z,0.061
2023-12-28T16:47:17.138Z,0.062
2023-12-28T16:49:18.344Z,0.061
2023-12-28T16:51:19.664Z,0.060
2023-12-28T16:53:17.163Z,0.062
2023-12-28T16:55:17.213Z,0.062
2023-12-28T16:57:40.602Z,0.062
2023-12-28T16:59:17.264Z,0.062
2023-12-28T17:01:17.279Z,0.060
2023-12-28T17:03:17.180Z,0.060
2023-12-28T17:05:17.185Z,0.060
2023-12-28T17:07:17.092Z,0.060
2023-12-28T17:09:17.197Z,0.056
2023-12-28T17:11:17.201Z,0.056
2023-12-28T17:13:17.213Z,0.057
2023-12-28T17:15:17.227Z,0.057
2023-12-28T17:17:17.376Z,0.056
2023-12-28T17:19:18.658Z,0.055
2023-12-28T17:21:21.428Z,0.055
2023-12-28T17:23:20.910Z,0.055
2023-12-28T17:25:17.371Z,0.057
2023-12-28T17:27:17.137Z,0.058
2023-12-28T17:29:17.521Z,0.059
2023-12-28T17:31:17.410Z,0.057
2023-12-28T17:33:17.291Z,0.055
2023-12-28T17:35:17.122Z,0.054
2023-12-28T17:37:17.140Z,0.053
2023-12-28T17:39:17.258Z,0.054
2023-12-28T17:41:19.623Z,0.055
2023-12-28T17:43:17.383Z,0.055
2023-12-28T17:45:17.761Z,0.053
2023-12-28T17:47:19.910Z,0.051
2023-12-28T17:49:17.656Z,0.051
2023-12-28T17:51:18.950Z,0.053
2023-12-28T17:53:17.245Z,0.055
2023-12-28T17:55:17.296Z,0.056
2023-12-28T17:57:17.232Z,0.055
2023-12-28T17:59:17.261Z,0.057
2023-12-28T18:01:17.342Z,0.058
2023-12-28T18:03:17.204Z,0.058
2023-12-28T18:05:17.265Z,0.057
2023-12-28T18:07:17.257Z,0.055
2023-12-28T18:09:20.746Z,0.057
2023-12-28T18:11:17.490Z,0.058
2023-12-28T18:13:17.348Z,0.058
2023-12-28T18:15:17.156Z,0.059
2023-12-28T18:17:17.196Z,0.059
2023-12-28T18:19:18.339Z,0.057
2023-12-28T18:21:17.730Z,0.059
2023-12-28T18:23:17.931Z,0.058
2023-12-28T18:25:17.214Z,0.057
2023-12-28T18:27:17.167Z,0.056
2023-12-28T18:29:17.922Z,0.057
2023-12-28T18:31:17.386Z,0.060
2023-12-28T18:33:17.354Z,0.060
2023-12-28T18:35:17.149Z,0.058
2023-12-28T18:37:17.929Z,0.057
2023-12-28T18:39:17.493Z,0.056
2023-12-28T18:41:17.519Z,0.057
2023-12-28T18:43:17.264Z,0.055
2023-12-28T18:45:17.340Z,0.054
2023-12-28T18:47:19.829Z,0.054
2023-12-28T18:49:17.330Z,0.053
2023-12-28T18:51:17.256Z,0.054
2023-12-28T18:53:17.208Z,0.053
2023-12-28T18:55:17.225Z,0.052
2023-12-28T18:57:17.938Z,0.052
2023-12-28T19:00:20.228Z,0.054
2023-12-28T19:02:22.105Z,0.054
2023-12-28T19:04:17.504Z,0.053
2023-12-28T19:06:17.568Z,0.053
2023-12-28T19:08:17.368Z,0.055
2023-12-28T19:10:17.220Z,0.055
2023-12-28T19:12:21.281Z,0.053
2023-12-28T19:14:17.218Z,0.052
2023-12-28T19:16:17.485Z,0.052
2023-12-28T19:18:17.630Z,0.052
2023-12-28T19:20:18.112Z,0.052
2023-12-28T19:22:17.381Z,0.052
2023-12-28T19:24:21.976Z,0.053
2023-12-28T19:26:17.486Z,0.053
2023-12-28T19:28:17.533Z,0.054
2023-12-28T19:30:17.457Z,0.054
2023-12-28T19:32:17.343Z,0.055
2023-12-28T19:34:17.581Z,0.058
2023-12-28T19:36:17.833Z,0.060
2023-12-28T19:38:17.323Z,0.060
2023-12-28T19:40:21.434Z,0.062
2023-12-28T19:42:17.381Z,0.064
2023-12-28T19:44:17.407Z,0.065
2023-12-28T19:46:17.309Z,0.066
2023-12-28T19:48:17.623Z,0.068
2023-12-28T19:50:17.467Z,0.068
2023-12-28T19:52:17.309Z,0.068
2023-12-28T19:54:18.515Z,0.069
2023-12-28T19:56:17.384Z,0.068
2023-12-28T19:58:17.391Z,0.069
2023-12-28T20:00:17.561Z,0.066
2023-12-28T20:02:17.349Z,0.066
2023-12-28T20:04:17.523Z,0.066
2023-12-28T20:06:17.346Z,0.067
2023-12-28T20:08:17.291Z,0.068
2023-12-28T20:10:18.104Z,0.067
2023-12-28T20:12:17.749Z,0.069
2023-12-28T20:14:20.222Z,0.069
2023-12-28T20:16:18.827Z,0.070
2023-12-28T20:18:17.909Z,0.070
2023-12-28T20:20:17.847Z,0.072
2023-12-28T20:22:23.209Z,0.072
2023-12-28T20:24:20.774Z,0.073
2023-12-28T20:26:17.488Z,0.072
2023-12-28T20:28:17.334Z,0.071
2023-12-28T20:30:20.159Z,0.070
2023-12-28T20:32:18.259Z,0.069
2023-12-28T20:34:17.541Z,0.068
2023-12-28T20:36:17.652Z,0.066
2023-12-28T20:38:17.457Z,0.065
2023-12-28T20:40:20.372Z,0.063
2023-12-28T20:42:18.797Z,0.062
2023-12-28T20:44:20.539Z,0.063
2023-12-28T20:46:17.500Z,0.064
2023-12-28T20:48:17.647Z,0.063
2023-12-28T20:50:17.732Z,0.062
2023-12-28T20:52:21.358Z,0.061
2023-12-28T20:54:17.537Z,0.059
2023-12-28T20:56:17.533Z,0.060
2023-12-28T20:58:17.642Z,0.061
2023-12-28T21:00:17.567Z,0.062
2023-12-28T21:02:18.195Z,0.061
2023-12-28T21:04:20.181Z,0.060
2023-12-28T21:06:20.256Z,0.059
2023-12-28T21:08:17.587Z,0.058
2023-12-28T21:10:22.497Z,0.058
2023-12-28T21:13:58.096Z,0.057
2023-12-28T21:15:58.921Z,0.058
2023-12-28T21:17:58.413Z,0.057
2023-12-28T21:19:56.425Z,0.053
2023-12-28T21:21:56.860Z,0.052
2023-12-28T21:23:58.882Z,0.051
2023-12-28T21:25:59.578Z,0.052
2023-12-28T21:28:00.640Z,0.052
2023-12-28T21:29:59.021Z,0.053
2023-12-28T21:31:56.843Z,0.052
2023-12-28T21:33:59.231Z,0.051
2023-12-28T21:37:00.925Z,0.052
2023-12-28T21:38:59.299Z,0.054
2023-12-28T21:40:01.628Z,0.053
2023-12-28T21:42:57.847Z,0.053
2023-12-28T21:44:56.306Z,0.052
2023-12-28T21:46:56.427Z,0.051
2023-12-28T21:48:58.597Z,0.052
2023-12-28T21:50:59.218Z,0.052
2023-12-28T21:52:56.463Z,0.050
2023-12-28T21:55:00.122Z,0.050
2023-12-28T21:56:57.430Z,0.049
2023-12-28T21:58:56.635Z,0.048
2023-12-28T22:00:57.717Z,0.047
2023-12-28T22:02:56.738Z,0.047
2023-12-28T22:04:56.399Z,0.049
2023-12-28T22:06:56.425Z,0.051
2023-12-28T22:08:56.392Z,0.048
2023-12-28T22:10:56.222Z,0.049
2023-12-28T22:13:00.816Z,0.050
2023-12-28T22:14:56.319Z,0.050
2023-12-28T22:16:56.532Z,0.050
2023-12-28T22:19:01.022Z,0.052
2023-12-28T22:20:56.298Z,0.053
2023-12-28T22:23:00.425Z,0.053
2023-12-28T22:24:59.172Z,0.053
2023-12-28T22:26:56.279Z,0.053
2023-12-28T22:28:56.120Z,0.052
2023-12-28T22:30:56.521Z,0.054
2023-12-28T22:32:56.224Z,0.056
2023-12-28T22:34:56.508Z,0.057
2023-12-28T22:36:56.262Z,0.058
2023-12-28T22:38:56.256Z,0.056
2023-12-28T22:40:56.197Z,0.059
2023-12-28T22:42:56.181Z,0.059
2023-12-28T22:44:56.276Z,0.059
2023-12-28T22:46:56.984Z,0.062
2023-12-28T22:48:57.881Z,0.062
2023-12-28T22:50:56.585Z,0.063
2023-12-28T22:53:01.180Z,0.064
2023-12-28T22:54:57.467Z,0.064
2023-12-28T22:56:56.253Z,0.063
2023-12-28T22:58:56.171Z,0.064
2023-12-28T23:00:56.421Z,0.064
2023-12-28T23:02:56.220Z,0.065
2023-12-28T23:04:56.624Z,0.065
2023-12-28T23:06:56.233Z,0.065
2023-12-28T23:08:56.193Z,0.066
2023-12-28T23:10:56.275Z,0.067
2023-12-28T23:12:56.277Z,0.066
2023-12-28T23:14:56.221Z,0.065
2023-12-28T23:16:56.168Z,0.065
2023-12-28T23:18:57.076Z,0.064
2023-12-28T23:20:56.231Z,0.065
2023-12-28T23:22:56.276Z,0.068
2023-12-28T23:24:56.195Z,0.066
2023-12-28T23:27:01.166Z,0.065
2023-12-28T23:28:57.988Z,0.066
2023-12-28T23:30:56.282Z,0.066
2023-12-28T23:32:56.245Z,0.066
2023-12-28T23:34:56.553Z,0.067
2023-12-28T23:36:56.302Z,0.066
2023-12-28T23:38:59.623Z,0.067
2023-12-28T23:40:59.547Z,0.065
2023-12-28T23:42:57.569Z,0.066
2023-12-28T23:44:56.187Z,0.066
2023-12-28T23:46:59.454Z,0.064
2023-12-28T23:48:56.167Z,0.064
2023-12-28T23:50:56.644Z,0.064
2023-12-28T23:52:58.850Z,0.064
2023-12-28T23:54:56.302Z,0.063
2023-12-28T23:56:56.412Z,0.066
2023-12-28T23:58:56.226Z,0.065
